Airfield :
LOGIN :

Register | Disclaimer

   EN    FR    IT 

 










Legend :    VFR   Marginal VFR   IFR   Intensive IFR   Very Intensive IFR
Visi :
Ceiling :
>= 8 km
>= 3000ft
5 to 8 km
1000 to 3000 ft
1500m to 5 km
500 to 1000 ft
800 to 1500m
200 to 500 ft
< 800m
< 200 ft
Symbols :   Thunderstorms  Fog  Heavy snow  Heavy precipitations  Wind > 20 kt
SIGMETs :     Misc.  Thunderstorms  Icing  Turbulence  Mountain Waves  Volcanic Ashes







- Airport Elevation : 1302 ft
- IATA code : GNB
- Download approach charts


LFLS - Grenoble / St. Geoirs

CURRENT METAR :
  • 241230Z AUTO 24010KT 210V270 9999 FEW044 BKN120 14/06 Q1019 BECMG 08007KT

EXPIRED METARs :
  • 241200Z AUTO 24010KT 210V270 9999 FEW001 SCT130 BKN150 14/05 Q1019 NOSIG
  • 241130Z AUTO 25010KT 210V270 9999 FEW058 BKN190 14/05 Q1019 NOSIG
  • 241100Z AUTO 23007KT 170V280 9999 FEW001 SCT210 14/06 Q1019 NOSIG
  • 241030Z AUTO 24010KT CAVOK 14/06 Q1019 NOSIG
  • 241000Z AUTO 00000KT CAVOK 13/06 Q1019 TEMPO 24012KT

TAF AMD TAF LFLS
Valid from the 24 at 09:00 until the 25 at 09:00 UTC


240901Z 2409/2509 08007KT CAVOK
TEMPO 2409/2414 24012KT
TEMPO 2414/2416 -RA
BECMG 2503/2506 RA OVC060
BECMG 2503/2506 6000 RA SCT020 OVC035
ATIS : +33 4 76 65 55 89
No reported NOTAMs for that airfield.



MET'MAP, your aeronautical weather chart ! - Copyright ORBIFLY December 2007 - Disclaimer

ORBIFLY MET'MAP TEAM :

Programming & Development : Alexandra Zaïnal
Concept & Development : Baudouin d'Aumeries
Co-Development & Prog : Marc-Olivier Méhu
Technical & hardware support : Manuel Goepfert

Contact : metmap@orbifly.com




SOURCES & CREDITS :

   NOAA